ADDS METAR Data INFO
IDs: Format: Raw Decoded Include TAF

Data at: 0215 UTC 18 Jan 2018

KGSO 180154Z 34005KT 2SM -SN BR OVC034 M06/M08 A3025 RMK AO2 SFC VIS 3 SLP255 P0015 T10611078
KGSO 180150Z 36004KT 2SM -SN BR OVC032 M06/M08 A3025 RMK AO2 SFC VIS 3 P0015
KGSO 180140Z 36004KT 2SM -SN BR BKN028 OVC050 M06/M08 A3025 RMK AO2 SFC VIS 3 P0014 T10611078
KGSO 180122Z 35004KT 1SM R05R/P6000FT -SN BR SCT026 OVC045 M06/M08 A3025 RMK AO2 SFC VIS 3 P0013 T10611078
KGSO 180054Z 35005KT 3SM -SN BR SCT026 OVC045 M06/M08 A3025 RMK AO2 SFC VIS 4 SLP253 P0038 T10611083
KGSO 180045Z 36007KT 3SM -SN BR SCT026 OVC045 M06/M08 A3024 RMK AO2 SFC VIS 4 P0036 T10611083
KGSO 180022Z 35007KT 2 1/2SM -SN BR SCT026 OVC048 M06/M08 A3024 RMK AO2 TWR VIS 3 P0009 T10611083
KGSO 172354Z COR 36010G16KT 3SM -SN BR OVC047 M06/M09 A3024 RMK AO2 SFC VIS 6 SLP249 P0050 60153 4/005 T10561089 11033 21056 51009
KGSO 172338Z 36008KT 3SM -SN BR OVC046 M06/M09 A3024 RMK AO2 SFC VIS 6 P0045 T10561089
KGSO 172254Z 36006KT 2SM -SN BR FEW026 OVC040 M06/M08 A3023 RMK AO2 SFC VIS 3 SLP246 P0045 T10561078
KGSO 172229Z 36009G16KT 2SM -SN BR FEW026 OVC040 M06/M08 A3023 RMK AO2 SFC VIS 3 P0028 T10561078
KGSO 172154Z 36010G16KT 6SM -SN BR SCT026 OVC045 M05/M07 A3022 RMK AO2 SLP242 P0044 T10501072
KGSO 172133Z COR 01009G22KT 6SM -SN BR SCT015 BKN026 OVC043 M05/M07 A3022 RMK AO2 P0034 T10501072
KGSO 172054Z 36009G18KT 1 1/2SM -SN BR SCT011 OVC017 M04/M06 A3021 RMK AO2 SLP238 P0003 60014 T10441061 53000
KGSO 172051Z 36012G19KT 1 1/2SM -SN BR SCT011 OVC017 M04/M06 A3021 RMK AO2 P0003
KGSO 172038Z 36012G20KT 1/2SM R05R/4000VP6000FT -SN BR VV008 M04/M06 A3020 RMK AO2 SFC VIS 3/4 P0003 T10441056
KGSO 171954Z 35008KT 1/4SM R05R/3000V4000FT SN FZFG VV007 M04/M05 A3020 RMK AO2 SFC VIS 1/2 SLP232 P0004 T10391050
KGSO 171854Z 36007KT 1/4SM R05R/2600V3500FT SN FZFG VV006 M04/M04 A3019 RMK AO2 SLP232 P0007 T10391044
KGSO 171829Z 36009KT 1/4SM R05R/2600V3000FT SN FZFG VV007 M03/M04 A3020 RMK AO2 SFC VIS 1/2 P0004 T10331044
KGSO 171754Z 02008KT 1/2SM R05R/2400V2600FT SN FZFG VV006 M03/M04 A3021 RMK AO2 SLP237 4/004 933004 P0008 60039 T10331039 11017 21033 58020
KGSO 171654Z 02007KT 1/2SM R05R/2600V3500FT SN FZFG VV008 M03/M04 A3024 RMK AO2 SLP247 P0007 T10331039
KGSO 171554Z 03008KT 1/2SM R05R/3500V5000FT SN FZFG VV007 M03/M04 A3026 RMK AO2 SLP253 P0006 T10331039
KGSO 171454Z 02009KT 1/2SM R05R/3500FT SN FZFG VV006 M03/M04 A3027 RMK AO2 SLP257 P0007 60018 T10331039 53005
KGSO 171407Z 01009G17KT 1/2SM R05R/3500V4000FT SN FZFG VV006 M03/M04 A3026 RMK AO2 P0001 T10331039
KGSO 171354Z 01008G14KT 1/2SM R05R/3500V4000FT SN FZFG SCT006 OVC011 M03/M03 A3026 RMK AO2 SLP256 P0005 T10281033
KGSO 171254Z 02010G17KT 1/2SM R05R/4500V5500FT SN FZFG FEW006 OVC012 M03/M03 A3026 RMK AO2 SLP253 P0006 T10281033
KGSO 171247Z 02011G19KT 3/4SM R05R/4500V5500FT -SN BR FEW006 OVC010 M03/M03 A3026 RMK AO2 P0006 T10281033
KGSO 171154Z 02011KT 3/4SM R05R/5500VP6000FT -SN BR VV007 M02/M02 A3025 RMK AO2 SLP252 4/001 P0007 60009 70009 T10171022 10028 21017 53004
KGSO 171132Z 36005KT 3/4SM R05R/5500VP6000FT -SN BR VV007 M01/M02 A3026 RMK AO2 P0004 T10111017
KGSO 171112Z 03006KT 3/4SM R05R/5500VP6000FT -SN BR FEW006 BKN010 OVC021 M01/M02 A3025 RMK AO2 P0002 T10111017
KGSO 171101Z 02007KT 1 1/4SM -SN BR FEW007 BKN014 OVC022 M01/M02 A3025 RMK AO2 P0001 T10111017
KGSO 171054Z 02009KT 1 1/2SM -SN BR FEW007 OVC020 M01/M02 A3025 RMK AO2 SLP248 P0002 T10111017
KGSO 171042Z 03008KT 1 1/4SM -SN BR FEW006 OVC020 M01/M01 A3025 RMK AO2 P0002 T10061011
KGSO 171032Z 01006KT 1 1/4SM -SN BR SCT016 OVC022 M01/M01 A3025 RMK AO2 P0001 T10061011
KGSO 171023Z 02008KT 1 1/2SM -SN BR OVC023 M01/M02 A3025 RMK AO2 P0001 T10061017
KGSO 171009Z 02005KT 2SM -SN BR OVC027 00/M02 A3024 RMK AO2 P0001 T00001017
KGSO 170954Z 02006KT 5SM -SN OVC027 01/M02 A3025 RMK AO2 SNB23 SLP247 P0000 T00061022
KGSO 170933Z 01007KT 4SM -SN BKN025 OVC032 01/M03 A3024 RMK AO2 SNB23 P0000 T00111033
KGSO 170854Z 03005KT 10SM BKN043 OVC050 02/M05 A3024 RMK AO2 SLP245 T00221050 53003
KGSO 170754Z 01004KT 10SM BKN045 OVC055 02/M03 A3023 RMK AO2 SLP241 T00171033
KGSO 170654Z 00000KT 10SM SCT050 OVC070 02/M03 A3023 RMK AO2 SLP241 T00171033
KGSO 170554Z 00000KT 10SM BKN048 OVC100 03/M04 A3023 RMK AO2 SLP242 T00281044 10039 20017 58015
KGSO 170454Z 00000KT 10SM OVC050 03/M05 A3025 RMK AO2 SLP247 T00281050 400671072
KGSO 170354Z 00000KT 10SM FEW090 BKN130 OVC180 03/M05 A3027 RMK AO2 SLP255 T00281050
KGSO 170254Z 00000KT 10SM BKN120 OVC180 03/M04 A3028 RMK AO2 SLP258 T00281044 58006
KGSO 170154Z 00000KT 10SM BKN090 OVC150 03/M05 A3029 RMK AO2 SLP262 T00281050
KGSO 170054Z 00000KT 10SM BKN100 BKN150 OVC200 03/M05 A3029 RMK AO2 SLP264 T00331050
KGSO 162354Z 18003KT 10SM BKN150 OVC200 03/M05 A3030 RMK AO2 SLP266 T00281050 10067 20022 57004
KGSO 162254Z 27003KT 10SM SCT150 OVC200 04/M06 A3030 RMK AO2 SLP269 T00441061
KGSO 162154Z 22005KT 10SM FEW150 OVC250 06/M06 A3030 RMK AO2 SLP268 T00561061
KGSO 162054Z 22007KT 10SM FEW150 OVC250 06/M06 A3031 RMK AO2 SLP270 T00611061 55018
KGSO 161954Z 22005KT 10SM FEW150 OVC250 07/M07 A3031 RMK AO2 SLP268 T00671067
KGSO 161854Z 22007KT 10SM FEW150 OVC250 06/M07 A3032 RMK AO2 SLP275 T00561072
KGSO 161754Z 20007KT 170V230 10SM OVC250 05/M08 A3036 RMK AO2 SLP288 T00501083 10050 21056 58024
KGSO 161654Z 22009KT 10SM OVC250 04/M09 A3041 RMK AO2 SLP305 T00441089
KGSO 161554Z VRB03KT 10SM BKN250 03/M10 A3043 RMK AO2 SLP313 T00281100
KGSO 161454Z 18004KT 10SM FEW120 BKN250 01/M09 A3044 RMK AO2 SLP315 T00111094 51014